Time;durP1;ratioP1;P1;durP2;ratioP2;P2;SDS_P1;SDS_P2;PMS_P1;PMS_P2;Temp;Humidity;BMP_temperature;BMP_pressure;BME280_temperature;BME280_humidity;BME280_pressure;Samples;Min_cycle;Max_cycle;Signal;HPM_P1;HPM_P2
2023/12/11 00:00:31;;;;;;;1.40;0.47;;;;;;;;;;5087027;28;20048;-77
2023/12/11 00:02:58;;;;;;;0.50;0.32;;;;;;;;;;5070199;28;20052;-77
2023/12/11 00:05:25;;;;;;;1.05;0.60;;;;;;;;;;5049977;28;20059;-77
2023/12/11 00:07:52;;;;;;;0.55;0.40;;;;;;;;;;5067813;28;20498;-77
2023/12/11 00:10:18;;;;;;;0.52;0.17;;;;;;;;;;5087161;28;20048;-77
2023/12/11 00:12:45;;;;;;;1.30;0.35;;;;;;;;;;5034018;28;20423;-77
2023/12/11 00:15:13;;;;;;;1.20;0.57;;;;;;;;;;5050292;28;20134;-77
2023/12/11 00:17:40;;;;;;;1.00;0.40;;;;;;;;;;5054617;28;20392;-77
2023/12/11 00:20:08;;;;;;;2.05;0.30;;;;;;;;;;5069674;28;20119;-77
2023/12/11 00:22:35;;;;;;;0.75;0.28;;;;;;;;;;5070300;28;20102;-77
2023/12/11 00:25:02;;;;;;;0.63;0.32;;;;;;;;;;5068649;28;20400;-77
2023/12/11 00:27:29;;;;;;;0.73;0.32;;;;;;;;;;5064196;28;20049;-77
2023/12/11 00:29:58;;;;;;;0.38;0.28;;;;;;;;;;5053437;28;20132;-77
2023/12/11 00:32:25;;;;;;;1.27;0.22;;;;;;;;;;5086577;28;20060;-77
2023/12/11 00:34:52;;;;;;;0.77;0.30;;;;;;;;;;5050675;28;20057;-77
2023/12/11 00:37:18;;;;;;;2.25;0.47;;;;;;;;;;5050057;28;20491;-77
2023/12/11 00:39:45;;;;;;;1.63;0.68;;;;;;;;;;5030222;28;20053;-77
2023/12/11 00:42:12;;;;;;;1.17;0.55;;;;;;;;;;5033571;28;20053;-77
2023/12/11 00:44:39;;;;;;;0.43;0.30;;;;;;;;;;5045360;28;20524;-77
2023/12/11 00:47:06;;;;;;;0.55;0.35;;;;;;;;;;5069174;28;20472;-77
2023/12/11 00:49:33;;;;;;;2.25;0.40;;;;;;;;;;5053472;28;20052;-77
2023/12/11 00:52:00;;;;;;;2.15;0.30;;;;;;;;;;5054515;28;20486;-77
2023/12/11 00:54:27;;;;;;;0.52;0.20;;;;;;;;;;5070009;28;20462;-77
2023/12/11 00:56:54;;;;;;;0.30;0.20;;;;;;;;;;5071270;28;20099;-77
2023/12/11 00:59:20;;;;;;;1.15;0.40;;;;;;;;;;5070182;28;20056;-77
2023/12/11 01:01:48;;;;;;;0.88;0.38;;;;;;;;;;5053733;28;20152;-77
2023/12/11 01:04:15;;;;;;;1.00;0.28;;;;;;;;;;5036939;28;20095;-77
2023/12/11 01:06:42;;;;;;;0.60;0.30;;;;;;;;;;5066107;28;20053;-77
2023/12/11 01:09:08;;;;;;;0.55;0.20;;;;;;;;;;5073080;28;20053;-77
2023/12/11 01:11:35;;;;;;;1.85;0.68;;;;;;;;;;5056824;28;20109;-77
2023/12/11 01:14:02;;;;;;;0.88;0.30;;;;;;;;;;5063521;28;20075;-77
2023/12/11 01:16:29;;;;;;;0.40;0.40;;;;;;;;;;5053460;28;20657;-77
2023/12/11 01:18:56;;;;;;;1.45;0.45;;;;;;;;;;5065710;28;20063;-77
2023/12/11 01:21:23;;;;;;;2.17;0.20;;;;;;;;;;5085727;28;20057;-77
2023/12/11 01:23:49;;;;;;;0.73;0.40;;;;;;;;;;5069834;28;20079;-77
2023/12/11 01:26:17;;;;;;;1.02;0.43;;;;;;;;;;5076202;28;20060;-77
2023/12/11 01:28:44;;;;;;;0.70;0.40;;;;;;;;;;5103023;28;20114;-77
2023/12/11 01:31:11;;;;;;;0.32;0.20;;;;;;;;;;5064858;28;20395;-77
2023/12/11 01:33:38;;;;;;;1.05;0.30;;;;;;;;;;5072921;28;20457;-77
2023/12/11 01:36:05;;;;;;;0.93;0.32;;;;;;;;;;5039026;28;20060;-77
2023/12/11 01:38:32;;;;;;;0.55;0.35;;;;;;;;;;5089627;28;20056;-77
2023/12/11 01:40:59;;;;;;;0.47;0.28;;;;;;;;;;5089543;28;20094;-77
2023/12/11 01:43:25;;;;;;;0.57;0.30;;;;;;;;;;5072734;28;20053;-77
2023/12/11 01:45:59;;;;;;;0.55;0.38;;;;;;;;;;5053448;28;20049;-77
2023/12/11 01:48:26;;;;;;;0.60;0.50;;;;;;;;;;5072996;28;20509;-77
2023/12/11 01:50:53;;;;;;;3.22;0.20;;;;;;;;;;5065767;28;20490;-77
2023/12/11 01:53:20;;;;;;;0.63;0.30;;;;;;;;;;5045773;28;20404;-77
2023/12/11 01:55:48;;;;;;;1.50;0.40;;;;;;;;;;5068984;28;20056;-77
2023/12/11 01:58:15;;;;;;;0.50;0.20;;;;;;;;;;5052946;28;20063;-77
2023/12/11 02:00:42;;;;;;;1.02;0.38;;;;;;;;;;5064042;28;20487;-77
2023/12/11 02:03:09;;;;;;;2.15;0.40;;;;;;;;;;5055701;28;20056;-77
2023/12/11 02:05:37;;;;;;;0.32;0.30;;;;;;;;;;5052359;28;20057;-77
2023/12/11 02:08:04;;;;;;;0.45;0.30;;;;;;;;;;5055128;28;20426;-77
2023/12/11 02:10:31;;;;;;;0.50;0.20;;;;;;;;;;5068756;28;20077;-77
2023/12/11 02:12:57;;;;;;;0.45;0.35;;;;;;;;;;5055566;28;20087;-77
2023/12/11 02:15:40;;;;;;;0.77;0.20;;;;;;;;;;5052164;28;20048;-78
2023/12/11 02:18:08;;;;;;;2.25;0.55;;;;;;;;;;5070693;28;20060;-77
2023/12/11 02:20:36;;;;;;;1.35;0.60;;;;;;;;;;5052195;28;20061;-77
2023/12/11 02:23:05;;;;;;;2.45;0.20;;;;;;;;;;5038180;28;20421;-77
2023/12/11 02:25:31;;;;;;;0.73;0.50;;;;;;;;;;5068605;28;20123;-77
2023/12/11 02:27:58;;;;;;;0.73;0.52;;;;;;;;;;5037285;28;20056;-77
2023/12/11 02:30:25;;;;;;;0.73;0.40;;;;;;;;;;5088753;28;20529;-77
2023/12/11 02:32:52;;;;;;;1.17;0.55;;;;;;;;;;5071794;28;20052;-77
2023/12/11 02:35:19;;;;;;;0.88;0.50;;;;;;;;;;5088672;28;20048;-77
2023/12/11 02:37:46;;;;;;;0.73;0.38;;;;;;;;;;5051874;28;20056;-77
2023/12/11 02:40:12;;;;;;;1.17;0.40;;;;;;;;;;5055320;28;20392;-78
2023/12/11 02:42:46;;;;;;;0.75;0.50;;;;;;;;;;5038878;28;20056;-77
2023/12/11 02:45:14;;;;;;;0.30;0.30;;;;;;;;;;5060295;28;20060;-77
2023/12/11 02:47:41;;;;;;;1.02;0.40;;;;;;;;;;5051782;28;20056;-77
2023/12/11 02:50:08;;;;;;;0.47;0.38;;;;;;;;;;5054686;28;20049;-77
2023/12/11 02:52:35;;;;;;;0.77;0.25;;;;;;;;;;5051422;28;20049;-77
2023/12/11 02:55:02;;;;;;;1.75;0.60;;;;;;;;;;5068644;28;20106;-77
2023/12/11 02:57:29;;;;;;;0.30;0.20;;;;;;;;;;5051393;28;20128;-77
2023/12/11 02:59:56;;;;;;;0.20;0.20;;;;;;;;;;5082339;28;20052;-77
2023/12/11 03:02:23;;;;;;;0.38;0.38;;;;;;;;;;5035019;28;20056;-77
2023/12/11 03:04:50;;;;;;;0.60;0.30;;;;;;;;;;5048845;28;20057;-77
2023/12/11 03:07:17;;;;;;;0.52;0.22;;;;;;;;;;5068021;28;20060;-77
2023/12/11 03:09:43;;;;;;;0.95;0.30;;;;;;;;;;5067409;28;20060;-77
2023/12/11 03:12:10;;;;;;;2.55;0.35;;;;;;;;;;5087522;28;20059;-77
2023/12/11 03:14:37;;;;;;;2.53;0.50;;;;;;;;;;5087470;28;20170;-77
2023/12/11 03:17:04;;;;;;;0.60;0.30;;;;;;;;;;5070094;28;20079;-77
2023/12/11 03:19:33;;;;;;;1.17;0.40;;;;;;;;;;5072316;28;20052;-77
2023/12/11 03:22:00;;;;;;;0.38;0.10;;;;;;;;;;5052901;28;20049;-77
2023/12/11 03:24:26;;;;;;;0.77;0.20;;;;;;;;;;5087444;28;20136;-77
2023/12/11 03:26:53;;;;;;;1.25;0.25;;;;;;;;;;5087483;28;20059;-77
2023/12/11 03:29:20;;;;;;;0.17;0.10;;;;;;;;;;5087491;28;20521;-77
2023/12/11 03:31:47;;;;;;;0.10;0.10;;;;;;;;;;5050748;28;20107;-77
2023/12/11 03:34:14;;;;;;;0.52;0.20;;;;;;;;;;5050357;28;20106;-77
2023/12/11 03:36:41;;;;;;;0.40;0.20;;;;;;;;;;5063237;28;20136;-77
2023/12/11 03:39:07;;;;;;;0.22;0.20;;;;;;;;;;5053075;28;20059;-77
2023/12/11 03:41:34;;;;;;;0.10;0.10;;;;;;;;;;5053943;28;20052;-77
2023/12/11 03:44:01;;;;;;;0.43;0.15;;;;;;;;;;5053730;28;20057;-77
2023/12/11 03:46:28;;;;;;;2.47;0.20;;;;;;;;;;5067332;28;20414;-77
2023/12/11 03:48:55;;;;;;;1.08;0.47;;;;;;;;;;5068355;28;20514;-77
2023/12/11 03:51:22;;;;;;;1.98;0.40;;;;;;;;;;5066921;28;20071;-77
2023/12/11 03:53:49;;;;;;;1.27;0.10;;;;;;;;;;5067140;28;20494;-77
2023/12/11 03:56:15;;;;;;;0.82;0.30;;;;;;;;;;5086807;28;20261;-78
2023/12/11 03:58:42;;;;;;;0.90;0.30;;;;;;;;;;5087315;28;20494;-77
2023/12/11 04:01:09;;;;;;;0.30;0.20;;;;;;;;;;5053596;28;20552;-78
2023/12/11 04:03:36;;;;;;;1.33;0.50;;;;;;;;;;5087261;28;20056;-78
2023/12/11 04:06:03;;;;;;;0.82;0.40;;;;;;;;;;5052594;28;20056;-78
2023/12/11 04:08:30;;;;;;;0.63;0.35;;;;;;;;;;5087203;28;20110;-78
2023/12/11 04:10:57;;;;;;;0.68;0.35;;;;;;;;;;5035608;28;20075;-78
2023/12/11 04:13:24;;;;;;;0.28;0.25;;;;;;;;;;5050268;28;20057;-78
2023/12/11 04:15:51;;;;;;;0.80;0.50;;;;;;;;;;5080512;28;20098;-78
2023/12/11 04:18:17;;;;;;;2.10;0.55;;;;;;;;;;5063184;28;20464;-77
2023/12/11 04:20:44;;;;;;;0.52;0.28;;;;;;;;;;5070361;28;20049;-78
2023/12/11 04:23:11;;;;;;;0.52;0.20;;;;;;;;;;5068014;28;20111;-78
2023/12/11 04:25:38;;;;;;;1.00;0.40;;;;;;;;;;5069789;28;20060;-78
2023/12/11 04:28:05;;;;;;;0.50;0.40;;;;;;;;;;5091220;28;20422;-78
2023/12/11 04:30:32;;;;;;;0.65;0.40;;;;;;;;;;5054168;28;20053;-78
2023/12/11 04:32:58;;;;;;;0.45;0.40;;;;;;;;;;5073963;28;20063;-78
2023/12/11 04:35:25;;;;;;;0.93;0.40;;;;;;;;;;5090600;28;20048;-77
2023/12/11 04:37:52;;;;;;;1.50;0.60;;;;;;;;;;5090501;28;20491;-78
2023/12/11 04:40:19;;;;;;;1.50;0.80;;;;;;;;;;5074282;28;20468;-78
2023/12/11 04:42:46;;;;;;;0.32;0.30;;;;;;;;;;5073948;28;20170;-78
2023/12/11 04:45:13;;;;;;;0.45;0.20;;;;;;;;;;5091291;28;20048;-78
2023/12/11 04:47:39;;;;;;;0.20;0.20;;;;;;;;;;5055086;28;20053;-77
2023/12/11 04:50:06;;;;;;;0.38;0.28;;;;;;;;;;5040139;28;20060;-77
2023/12/11 04:52:33;;;;;;;0.30;0.30;;;;;;;;;;5054338;28;20490;-77
2023/12/11 04:55:00;;;;;;;1.48;0.30;;;;;;;;;;5072002;28;20573;-77
2023/12/11 04:57:27;;;;;;;1.58;0.40;;;;;;;;;;5043995;28;20115;-77
2023/12/11 04:59:54;;;;;;;2.08;0.70;;;;;;;;;;5078608;28;20094;-77
2023/12/11 05:02:21;;;;;;;2.33;0.63;;;;;;;;;;5077811;28;20106;-77
2023/12/11 05:04:48;;;;;;;4.32;0.65;;;;;;;;;;5060850;28;20053;-77
2023/12/11 05:07:15;;;;;;;1.83;1.15;;;;;;;;;;5076671;28;20060;-77
2023/12/11 05:09:42;;;;;;;0.60;0.50;;;;;;;;;;5060948;28;20513;-78
2023/12/11 05:12:09;;;;;;;1.23;0.40;;;;;;;;;;5066009;28;20123;-77
2023/12/11 05:14:35;;;;;;;0.80;0.40;;;;;;;;;;5068248;28;20049;-78
2023/12/11 05:17:02;;;;;;;0.65;0.50;;;;;;;;;;5092344;28;20049;-78
2023/12/11 05:19:29;;;;;;;0.38;0.20;;;;;;;;;;5068294;28;20053;-77
2023/12/11 05:21:58;;;;;;;0.70;0.30;;;;;;;;;;5046633;28;20041;-78
2023/12/11 05:24:25;;;;;;;1.20;0.40;;;;;;;;;;5058772;28;20056;-77
2023/12/11 05:26:54;;;;;;;2.00;0.55;;;;;;;;;;5051633;28;20511;-78
2023/12/11 05:29:21;;;;;;;1.60;0.90;;;;;;;;;;5053436;28;20422;-78
2023/12/11 05:31:47;;;;;;;8.57;6.50;;;;;;;;;;5049844;28;20049;-78
2023/12/11 05:34:14;;;;;;;1.13;1.00;;;;;;;;;;5092450;28;20056;-78
2023/12/11 05:36:41;;;;;;;0.32;0.32;;;;;;;;;;5054254;28;20160;-78
2023/12/11 05:39:08;;;;;;;0.20;0.20;;;;;;;;;;5055975;28;20056;-78
2023/12/11 05:41:35;;;;;;;1.35;0.22;;;;;;;;;;5073814;28;20054;-78
2023/12/11 05:44:03;;;;;;;2.55;0.30;;;;;;;;;;5077606;28;20044;-78
2023/12/11 05:46:32;;;;;;;1.42;0.30;;;;;;;;;;5089260;28;20407;-78
2023/12/11 05:48:59;;;;;;;1.17;0.25;;;;;;;;;;5089932;28;20059;-78
2023/12/11 05:51:27;;;;;;;1.40;0.38;;;;;;;;;;5072913;28;20463;-78
2023/12/11 05:53:57;;;;;;;0.98;0.63;;;;;;;;;;5072779;28;20399;-78
2023/12/11 05:56:24;;;;;;;0.73;0.40;;;;;;;;;;5089463;28;20044;-78
2023/12/11 05:58:52;;;;;;;1.00;0.40;;;;;;;;;;5088881;28;20053;-78
2023/12/11 06:01:18;;;;;;;0.32;0.32;;;;;;;;;;5082011;28;20494;-78
2023/12/11 06:03:45;;;;;;;3.47;0.50;;;;;;;;;;5056145;28;20149;-78
2023/12/11 06:06:15;;;;;;;0.65;0.30;;;;;;;;;;5055860;28;20084;-78
2023/12/11 06:08:43;;;;;;;0.70;0.50;;;;;;;;;;5072570;28;20067;-78
2023/12/11 06:11:10;;;;;;;0.77;0.50;;;;;;;;;;5039401;28;20056;-77
2023/12/11 06:13:37;;;;;;;2.35;0.40;;;;;;;;;;5035852;28;20545;-78
2023/12/11 06:16:04;;;;;;;0.85;0.50;;;;;;;;;;5070319;28;20057;-78
2023/12/11 06:18:31;;;;;;;1.08;0.60;;;;;;;;;;5089108;28;20135;-78
2023/12/11 06:20:58;;;;;;;0.85;0.80;;;;;;;;;;5088881;28;20101;-78
2023/12/11 06:23:30;;;;;;;1.40;0.65;;;;;;;;;;5052548;28;20056;-78
2023/12/11 06:25:56;;;;;;;2.45;1.05;;;;;;;;;;5069823;28;20056;-79
2023/12/11 06:28:23;;;;;;;1.13;0.88;;;;;;;;;;5052083;28;20053;-78
2023/12/11 06:30:51;;;;;;;3.10;1.63;;;;;;;;;;5049709;28;20049;-79
2023/12/11 06:33:18;;;;;;;1.65;1.02;;;;;;;;;;5068996;28;20059;-78
2023/12/11 06:35:44;;;;;;;2.60;1.23;;;;;;;;;;5068157;28;20049;-78
2023/12/11 06:38:11;;;;;;;3.35;0.63;;;;;;;;;;5088570;28;20102;-78
2023/12/11 06:40:38;;;;;;;0.70;0.40;;;;;;;;;;5073163;28;20048;-78
2023/12/11 06:43:05;;;;;;;0.70;0.35;;;;;;;;;;5054424;28;20056;-78
2023/12/11 06:45:32;;;;;;;0.88;0.40;;;;;;;;;;5071123;28;20056;-78
2023/12/11 06:48:03;;;;;;;0.60;0.30;;;;;;;;;;5088025;28;20426;-78
2023/12/11 06:50:30;;;;;;;0.70;0.60;;;;;;;;;;5088427;28;20082;-78
2023/12/11 06:52:57;;;;;;;0.98;0.47;;;;;;;;;;5088109;28;20056;-78
2023/12/11 06:55:24;;;;;;;1.70;0.90;;;;;;;;;;5067902;28;20067;-78
2023/12/11 06:57:51;;;;;;;1.73;0.98;;;;;;;;;;5068645;28;20506;-78
2023/12/11 07:00:19;;;;;;;3.13;1.35;;;;;;;;;;5088343;28;20056;-78
2023/12/11 07:02:45;;;;;;;0.68;0.68;;;;;;;;;;5051811;28;20458;-78
2023/12/11 07:05:12;;;;;;;0.93;0.70;;;;;;;;;;5059619;28;20427;-79
2023/12/11 07:07:39;;;;;;;0.70;0.50;;;;;;;;;;5067963;28;20106;-78
2023/12/11 07:10:06;;;;;;;0.57;0.30;;;;;;;;;;5070594;28;20067;-78
2023/12/11 07:12:35;;;;;;;0.60;0.60;;;;;;;;;;5088280;28;20418;-78
2023/12/11 07:15:02;;;;;;;0.40;0.40;;;;;;;;;;5069922;28;20430;-78
2023/12/11 07:17:29;;;;;;;2.35;0.80;;;;;;;;;;5052204;28;20056;-78
2023/12/11 07:19:59;;;;;;;0.40;0.30;;;;;;;;;;5070199;28;20056;-78
2023/12/11 07:22:26;;;;;;;0.90;0.35;;;;;;;;;;5087588;28;20056;-78
2023/12/11 07:24:53;;;;;;;1.45;0.40;;;;;;;;;;5087573;28;20103;-78
2023/12/11 07:27:20;;;;;;;0.85;0.63;;;;;;;;;;5067490;28;20049;-78
2023/12/11 07:29:46;;;;;;;2.67;0.80;;;;;;;;;;5051006;28;20063;-78
2023/12/11 07:32:13;;;;;;;1.08;0.80;;;;;;;;;;5087672;28;20068;-78
2023/12/11 07:34:42;;;;;;;2.13;0.68;;;;;;;;;;5070834;28;20052;-78
2023/12/11 07:37:10;;;;;;;0.98;0.47;;;;;;;;;;5070762;28;20418;-78
2023/12/11 07:39:37;;;;;;;1.20;0.88;;;;;;;;;;5050863;28;20128;-78
2023/12/11 07:42:04;;;;;;;0.82;0.43;;;;;;;;;;5071009;28;20048;-78
2023/12/11 07:44:31;;;;;;;0.70;0.55;;;;;;;;;;5087080;28;20060;-78
2023/12/11 07:46:59;;;;;;;1.67;0.80;;;;;;;;;;5087517;28;20052;-78
2023/12/11 07:49:25;;;;;;;1.20;1.00;;;;;;;;;;5087364;28;20419;-78
2023/12/11 07:51:53;;;;;;;0.88;0.70;;;;;;;;;;5037534;28;20170;-78
2023/12/11 07:54:21;;;;;;;2.35;0.77;;;;;;;;;;5090262;28;20060;-78
2023/12/11 07:56:48;;;;;;;3.05;1.10;;;;;;;;;;5070481;28;20071;-78
2023/12/11 07:59:15;;;;;;;3.55;1.50;;;;;;;;;;5070032;28;20518;-78
2023/12/11 08:01:42;;;;;;;1.98;0.80;;;;;;;;;;5053878;28;20053;-78
2023/12/11 08:04:09;;;;;;;0.98;0.60;;;;;;;;;;5053892;28;20498;-78
2023/12/11 08:06:42;;;;;;;1.90;0.88;;;;;;;;;;5087524;28;20131;-78
2023/12/11 08:09:09;;;;;;;1.15;0.90;;;;;;;;;;5087330;28;20060;-78
2023/12/11 08:11:36;;;;;;;2.88;0.80;;;;;;;;;;5087187;28;20052;-78
2023/12/11 08:14:03;;;;;;;2.28;0.80;;;;;;;;;;5070001;28;20048;-78
2023/12/11 08:16:31;;;;;;;1.08;0.80;;;;;;;;;;5050355;28;20053;-78
2023/12/11 08:18:58;;;;;;;2.78;1.23;;;;;;;;;;5066784;28;20471;-78
2023/12/11 08:21:25;;;;;;;1.77;1.13;;;;;;;;;;5087196;28;20060;-78
2023/12/11 08:23:52;;;;;;;3.72;1.00;;;;;;;;;;5086968;28;20106;-78
2023/12/11 08:26:19;;;;;;;4.05;2.00;;;;;;;;;;5086836;28;20060;-78
2023/12/11 08:28:47;;;;;;;2.60;0.93;;;;;;;;;;5050326;28;20051;-78
2023/12/11 08:31:13;;;;;;;2.03;0.73;;;;;;;;;;5068885;28;20048;-78
2023/12/11 08:33:40;;;;;;;2.28;0.63;;;;;;;;;;5053988;28;20457;-78
2023/12/11 08:36:08;;;;;;;2.05;1.48;;;;;;;;;;5090993;28;20521;-78
2023/12/11 08:38:35;;;;;;;0.90;0.50;;;;;;;;;;5070724;28;20053;-78
2023/12/11 08:41:02;;;;;;;3.50;0.50;;;;;;;;;;5054047;28;20098;-79
2023/12/11 08:43:28;;;;;;;1.50;0.80;;;;;;;;;;5086960;28;20063;-78
2023/12/11 08:45:55;;;;;;;2.22;1.67;;;;;;;;;;5086535;28;20102;-78
2023/12/11 08:48:23;;;;;;;1.63;1.00;;;;;;;;;;5087487;28;20071;-78
2023/12/11 08:50:54;;;;;;;1.42;0.60;;;;;;;;;;5087070;28;20132;-78
2023/12/11 08:53:21;;;;;;;2.83;0.60;;;;;;;;;;5086709;28;20531;-79
2023/12/11 08:55:50;;;;;;;1.10;0.22;;;;;;;;;;5087106;28;20067;-78
2023/12/11 08:58:16;;;;;;;2.00;0.43;;;;;;;;;;5037596;28;20521;-78
2023/12/11 09:00:44;;;;;;;0.65;0.50;;;;;;;;;;5056263;28;20063;-78
2023/12/11 09:03:11;;;;;;;1.05;0.32;;;;;;;;;;5086255;28;20063;-78
2023/12/11 09:05:38;;;;;;;0.93;0.50;;;;;;;;;;5058500;28;20064;-79
2023/12/11 09:08:05;;;;;;;3.38;1.40;;;;;;;;;;5093731;28;20104;-78
2023/12/11 09:10:33;;;;;;;1.50;1.30;;;;;;;;;;5077425;28;20367;-79
2023/12/11 09:13:00;;;;;;;0.95;0.77;;;;;;;;;;5061383;28;20048;-78
2023/12/11 09:15:27;;;;;;;1.02;0.25;;;;;;;;;;5078608;28;20399;-78
2023/12/11 09:17:54;;;;;;;1.58;0.82;;;;;;;;;;5060304;28;20083;-78
2023/12/11 09:20:20;;;;;;;1.65;0.50;;;;;;;;;;5075697;28;20052;-78
2023/12/11 09:22:47;;;;;;;1.73;0.60;;;;;;;;;;5075737;28;20048;-78
2023/12/11 09:25:14;;;;;;;1.38;0.30;;;;;;;;;;5054588;28;20478;-77
2023/12/11 09:27:41;;;;;;;0.75;0.30;;;;;;;;;;5066053;28;20114;-77
2023/12/11 09:30:09;;;;;;;0.32;0.25;;;;;;;;;;5073523;28;20045;-78
2023/12/11 09:32:36;;;;;;;1.02;0.30;;;;;;;;;;5057786;28;20056;-78
2023/12/11 09:35:04;;;;;;;1.45;0.50;;;;;;;;;;5058691;28;20506;-79
2023/12/11 09:37:31;;;;;;;3.13;0.95;;;;;;;;;;5057749;28;20075;-79
2023/12/11 09:39:58;;;;;;;0.40;0.40;;;;;;;;;;5057344;28;20080;-78
2023/12/11 09:42:26;;;;;;;3.72;0.77;;;;;;;;;;5094413;28;20055;-79
2023/12/11 09:44:53;;;;;;;2.45;0.65;;;;;;;;;;5057284;28;20502;-78
2023/12/11 09:47:24;;;;;;;2.55;1.38;;;;;;;;;;5073942;28;20061;-79
2023/12/11 09:49:51;;;;;;;1.50;0.45;;;;;;;;;;5043849;28;20061;-78
2023/12/11 09:52:18;;;;;;;3.13;0.50;;;;;;;;;;5056721;28;20060;-78
2023/12/11 09:54:46;;;;;;;1.15;0.47;;;;;;;;;;5052003;28;20056;-78
2023/12/11 09:57:16;;;;;;;2.47;0.60;;;;;;;;;;5051507;28;20052;-79
2023/12/11 09:59:43;;;;;;;4.05;0.93;;;;;;;;;;5076063;28;20551;-78
2023/12/11 10:02:14;;;;;;;0.47;0.40;;;;;;;;;;5076400;28;20464;-79
2023/12/11 10:05:02;;;;;;;2.28;0.73;;;;;;;;;;5056429;28;20049;-78
2023/12/11 10:07:30;;;;;;;0.82;0.43;;;;;;;;;;5077091;28;20095;-78
2023/12/11 10:09:59;;;;;;;0.75;0.45;;;;;;;;;;5060349;28;20076;-78
2023/12/11 10:12:26;;;;;;;1.90;0.52;;;;;;;;;;5056467;28;20422;-78
2023/12/11 10:15:02;;;;;;;2.33;0.77;;;;;;;;;;5043689;28;20122;-78
2023/12/11 10:17:31;;;;;;;5.10;0.60;;;;;;;;;;5062563;28;20060;-78
2023/12/11 10:19:58;;;;;;;1.70;0.60;;;;;;;;;;5075601;28;20528;-78
2023/12/11 10:22:32;;;;;;;3.17;0.50;;;;;;;;;;5092700;28;20055;-78
2023/12/11 10:24:59;;;;;;;4.57;0.50;;;;;;;;;;5042893;28;20053;-78
2023/12/11 10:27:26;;;;;;;2.47;1.10;;;;;;;;;;5094148;28;20048;-78
2023/12/11 10:30:14;;;;;;;3.63;1.25;;;;;;;;;;5041112;28;20057;-79
2023/12/11 10:32:41;;;;;;;2.15;0.43;;;;;;;;;;5075339;28;20044;-78
2023/12/11 10:35:08;;;;;;;1.30;0.40;;;;;;;;;;5076164;28;20529;-78
2023/12/11 10:37:35;;;;;;;4.03;0.70;;;;;;;;;;5057672;28;20044;-78
2023/12/11 10:40:03;;;;;;;2.25;0.38;;;;;;;;;;5074976;28;20056;-79
2023/12/11 10:42:30;;;;;;;2.00;0.40;;;;;;;;;;5072080;28;20140;-79
2023/12/11 10:44:57;;;;;;;1.17;0.45;;;;;;;;;;5058014;28;20056;-78
2023/12/11 10:47:24;;;;;;;1.58;0.60;;;;;;;;;;5092277;28;20063;-79
2023/12/11 10:49:51;;;;;;;1.80;0.52;;;;;;;;;;5077089;28;20052;-78
2023/12/11 10:52:18;;;;;;;4.57;0.70;;;;;;;;;;5091677;28;20094;-78
2023/12/11 10:54:45;;;;;;;4.30;0.90;;;;;;;;;;5057211;28;20088;-78
2023/12/11 10:57:14;;;;;;;2.47;0.70;;;;;;;;;;5074184;28;20053;-78
2023/12/11 10:59:43;;;;;;;1.33;0.60;;;;;;;;;;5042555;28;20121;-78
2023/12/11 11:02:10;;;;;;;2.60;0.70;;;;;;;;;;5059160;28;20510;-78
2023/12/11 11:04:39;;;;;;;4.40;0.90;;;;;;;;;;5071322;28;20049;-80
2023/12/11 11:07:28;;;;;;;3.03;0.65;;;;;;;;;;5092442;28;20095;-79
2023/12/11 11:10:04;;;;;;;2.60;0.50;;;;;;;;;;5041234;28;20060;-79
2023/12/11 11:12:41;;;;;;;4.47;1.13;;;;;;;;;;5075464;28;20048;-79
2023/12/11 11:15:11;;;;;;;2.78;0.95;;;;;;;;;;5040249;28;20326;-77
2023/12/11 11:18:00;;;;;;;6.20;1.15;;;;;;;;;;5035720;28;20052;-77
2023/12/11 11:20:31;;;;;;;3.72;1.15;;;;;;;;;;5062062;28;20099;-77
2023/12/11 11:23:16;;;;;;;4.50;0.88;;;;;;;;;;5051029;28;20049;-77
2023/12/11 11:25:56;;;;;;;3.67;0.90;;;;;;;;;;5070772;28;20048;-77
2023/12/11 11:28:37;;;;;;;7.45;0.68;;;;;;;;;;5037995;28;20458;-78
2023/12/11 11:31:06;;;;;;;3.40;0.70;;;;;;;;;;5052618;28;20052;-78
2023/12/11 11:33:51;;;;;;;3.92;0.82;;;;;;;;;;5065839;28;20529;-78
2023/12/11 11:36:21;;;;;;;4.00;1.15;;;;;;;;;;5067604;28;20053;-78
2023/12/11 11:38:58;;;;;;;5.03;1.42;;;;;;;;;;5031560;28;20521;-78
2023/12/11 11:41:26;;;;;;;5.18;0.80;;;;;;;;;;5067532;28;20057;-77
2023/12/11 11:44:07;;;;;;;9.18;1.35;;;;;;;;;;5054042;28;20053;-77
2023/12/11 11:46:52;;;;;;;3.30;0.68;;;;;;;;;;5050820;28;20052;-78
2023/12/11 11:49:25;;;;;;;2.47;0.80;;;;;;;;;;5060395;28;20425;-77
2023/12/11 11:51:52;;;;;;;3.17;0.70;;;;;;;;;;5032310;28;20048;-77
2023/12/11 11:54:21;;;;;;;7.72;0.90;;;;;;;;;;5087097;28;20414;-77
2023/12/11 11:56:48;;;;;;;9.18;0.95;;;;;;;;;;5034591;28;20469;-77
2023/12/11 11:59:15;;;;;;;3.83;0.73;;;;;;;;;;5050519;28;20049;-77
2023/12/11 12:01:55;;;;;;;5.15;0.70;;;;;;;;;;5046511;28;20102;-77
2023/12/11 12:04:34;;;;;;;3.28;0.90;;;;;;;;;;5060313;28;20053;-77
2023/12/11 12:07:03;;;;;;;6.78;1.05;;;;;;;;;;5053024;28;20468;-78
2023/12/11 12:09:30;;;;;;;5.05;1.00;;;;;;;;;;5051004;28;20060;-78
2023/12/11 12:11:58;;;;;;;6.22;0.98;;;;;;;;;;5051973;28;20098;-78
2023/12/11 12:14:27;;;;;;;5.85;1.33;;;;;;;;;;5035009;28;20352;-78
2023/12/11 12:16:55;;;;;;;5.20;0.90;;;;;;;;;;5068754;28;20442;-78
2023/12/11 12:19:32;;;;;;;6.43;1.85;;;;;;;;;;5050766;28;20517;-78
2023/12/11 12:22:01;;;;;;;4.15;1.00;;;;;;;;;;5035774;28;20585;-77
2023/12/11 12:24:29;;;;;;;3.70;0.90;;;;;;;;;;5066763;28;20466;-78
2023/12/11 12:26:59;;;;;;;4.55;1.25;;;;;;;;;;5051815;28;20094;-78
2023/12/11 12:29:26;;;;;;;4.20;0.70;;;;;;;;;;5034356;28;20057;-78
2023/12/11 12:31:53;;;;;;;7.25;1.00;;;;;;;;;;5048786;28;20049;-78
2023/12/11 12:34:20;;;;;;;6.22;1.35;;;;;;;;;;5053501;28;20048;-77
2023/12/11 12:36:46;;;;;;;2.85;1.10;;;;;;;;;;5053718;28;20106;-78
2023/12/11 12:39:16;;;;;;;5.30;0.98;;;;;;;;;;5086747;28;20057;-78
2023/12/11 12:41:43;;;;;;;8.10;1.60;;;;;;;;;;5033998;28;20094;-78
2023/12/11 12:44:10;;;;;;;4.38;0.90;;;;;;;;;;5054210;28;20082;-77
2023/12/11 12:46:41;;;;;;;6.45;0.93;;;;;;;;;;5048823;28;20053;-78
2023/12/11 12:49:12;;;;;;;4.68;1.15;;;;;;;;;;5055738;28;20056;-77
2023/12/11 12:51:50;;;;;;;4.25;1.00;;;;;;;;;;5053698;28;20441;-80
2023/12/11 12:54:18;;;;;;;5.85;1.00;;;;;;;;;;5063056;28;20418;-76
2023/12/11 12:56:51;;;;;;;3.05;0.75;;;;;;;;;;5065254;28;20528;-79
2023/12/11 12:59:19;;;;;;;5.35;1.13;;;;;;;;;;5059116;28;20098;-83
2023/12/11 13:01:47;;;;;;;4.45;1.30;;;;;;;;;;5068159;28;20079;-78
2023/12/11 13:04:14;;;;;;;5.65;1.10;;;;;;;;;;5076896;28;20052;-77
2023/12/11 13:06:41;;;;;;;8.23;1.10;;;;;;;;;;5051350;28;20462;-78
2023/12/11 13:09:11;;;;;;;4.15;0.90;;;;;;;;;;5070577;28;20518;-78
2023/12/11 13:11:43;;;;;;;8.90;1.30;;;;;;;;;;5068561;28;20072;-77
2023/12/11 13:14:12;;;;;;;7.35;1.20;;;;;;;;;;5038085;28;20048;-77
2023/12/11 13:16:40;;;;;;;4.30;1.15;;;;;;;;;;5051671;28;20061;-78
2023/12/11 13:19:09;;;;;;;6.50;0.88;;;;;;;;;;5034444;28;20082;-77
2023/12/11 13:21:37;;;;;;;3.58;1.27;;;;;;;;;;5037177;28;20131;-77
2023/12/11 13:24:04;;;;;;;5.05;1.15;;;;;;;;;;5037636;28;20548;-77
2023/12/11 13:26:31;;;;;;;8.57;1.48;;;;;;;;;;5051062;28;20107;-77
2023/12/11 13:28:58;;;;;;;8.77;1.23;;;;;;;;;;5071020;28;20510;-78
2023/12/11 13:31:25;;;;;;;8.43;1.48;;;;;;;;;;5044191;28;20110;-77
2023/12/11 13:33:52;;;;;;;3.35;0.82;;;;;;;;;;5051577;28;20086;-77
2023/12/11 13:36:19;;;;;;;4.75;0.98;;;;;;;;;;5071567;28;20136;-77
2023/12/11 13:38:46;;;;;;;4.32;1.10;;;;;;;;;;5073375;28;20052;-80
2023/12/11 13:41:13;;;;;;;8.30;1.10;;;;;;;;;;5063969;28;20064;-77
2023/12/11 13:43:40;;;;;;;6.28;1.10;;;;;;;;;;5069120;28;20518;-79
2023/12/11 13:46:07;;;;;;;4.47;0.90;;;;;;;;;;5077874;28;20105;-78
2023/12/11 13:48:34;;;;;;;7.80;1.25;;;;;;;;;;5073328;28;20532;-79
2023/12/11 13:51:01;;;;;;;8.27;1.42;;;;;;;;;;5073575;28;20102;-78
2023/12/11 13:53:28;;;;;;;5.00;0.73;;;;;;;;;;5052965;28;20542;-80
2023/12/11 13:55:55;;;;;;;5.70;1.00;;;;;;;;;;5042208;28;20227;-81
2023/12/11 13:58:22;;;;;;;7.53;1.33;;;;;;;;;;5047697;28;20110;-81
2023/12/11 14:00:50;;;;;;;7.95;1.38;;;;;;;;;;5049376;28;20075;-81
2023/12/11 14:03:19;;;;;;;8.00;1.73;;;;;;;;;;5067771;28;20127;-81
2023/12/11 14:05:50;;;;;;;14.77;1.70;;;;;;;;;;5070290;28;20048;-83
2023/12/11 14:08:17;;;;;;;6.82;1.13;;;;;;;;;;5086389;28;20368;-81
2023/12/11 14:10:44;;;;;;;7.53;0.82;;;;;;;;;;5081333;28;20122;-80
2023/12/11 14:13:14;;;;;;;7.38;1.88;;;;;;;;;;5057898;28;20075;-81
2023/12/11 14:15:44;;;;;;;6.53;1.10;;;;;;;;;;5073787;28;20154;-81
2023/12/11 14:18:12;;;;;;;9.07;2.33;;;;;;;;;;5069222;28;20056;-81
2023/12/11 14:20:39;;;;;;;6.32;1.58;;;;;;;;;;5065041;28;20430;-82
2023/12/11 14:23:07;;;;;;;13.73;1.80;;;;;;;;;;5080501;28;20052;-81
2023/12/11 14:25:33;;;;;;;9.25;1.58;;;;;;;;;;5070218;28;20064;-81
2023/12/11 14:28:06;;;;;;;6.13;1.30;;;;;;;;;;5084089;28;21060;-80
2023/12/11 14:30:35;;;;;;;6.15;1.73;;;;;;;;;;5053207;28;20068;-78
2023/12/11 14:33:06;;;;;;;7.07;1.42;;;;;;;;;;5035686;28;20056;-78
2023/12/11 14:35:33;;;;;;;6.43;1.17;;;;;;;;;;5071317;28;20444;-79
2023/12/11 14:38:00;;;;;;;9.13;2.25;;;;;;;;;;5045804;28;20059;-77
2023/12/11 14:40:27;;;;;;;14.13;1.98;;;;;;;;;;5063497;28;20118;-79
2023/12/11 14:42:54;;;;;;;7.63;1.30;;;;;;;;;;5039816;28;20044;-78
2023/12/11 14:45:21;;;;;;;9.43;2.50;;;;;;;;;;5080466;28;20048;-78
2023/12/11 14:47:48;;;;;;;7.93;1.52;;;;;;;;;;5056149;28;20112;-78